Time;durP1;ratioP1;P1;durP2;ratioP2;P2;SDS_P1;SDS_P2;PMS_P1;PMS_P2;Temp;Humidity;BMP_temperature;BMP_pressure;BME280_temperature;BME280_humidity;BME280_pressure;Samples;Min_cycle;Max_cycle;Signal;HPM_P1;HPM_P2
2023/06/06 00:00:29;;;;;;;5.73;3.80;;;12.80;91.70;;;12.64;75.90;98000.53;5083933;28;20459;-72
2023/06/06 00:02:57;;;;;;;5.10;3.93;;;12.80;91.50;;;12.59;76.35;97989.56;5087720;28;20852;-72
2023/06/06 00:05:27;;;;;;;4.67;3.90;;;12.70;92.00;;;12.55;76.63;97993.78;5087771;28;20896;-75
2023/06/06 00:07:54;;;;;;;5.07;4.00;;;12.70;92.30;;;12.39;77.58;97987.94;5089163;28;20541;-73
2023/06/06 00:10:22;;;;;;;5.43;4.90;;;12.60;92.60;;;12.42;77.77;97995.59;5068863;28;20477;-72
2023/06/06 00:12:52;;;;;;;6.23;4.80;;;12.70;92.60;;;12.47;77.55;97998.44;5087276;28;20454;-73
2023/06/06 00:15:20;;;;;;;5.00;4.20;;;12.70;92.60;;;12.45;77.65;97995.16;5095021;28;20449;-72
2023/06/06 00:17:53;;;;;;;5.67;3.73;;;12.60;92.90;;;12.50;77.37;97994.47;5087379;28;20469;-73
2023/06/06 00:20:20;;;;;;;5.33;4.60;;;12.70;92.50;;;12.53;77.46;97995.91;5087675;28;20456;-71
2023/06/06 00:22:48;;;;;;;4.70;4.30;;;12.70;92.60;;;12.34;77.91;97990.50;5091984;28;20466;-72
2023/06/06 00:25:16;;;;;;;4.50;4.10;;;12.60;92.70;;;11.79;78.10;97910.94;5087519;28;20952;-72
2023/06/06 00:27:45;;;;;;;5.90;5.10;;;12.50;93.00;;;12.22;78.04;97997.75;5090738;28;20464;-73
2023/06/06 00:30:13;;;;;;;5.77;4.80;;;12.50;92.90;;;12.30;77.76;97992.00;5084336;28;20469;-71
2023/06/06 00:32:40;;;;;;;4.73;4.33;;;12.50;93.40;;;12.33;77.88;97984.25;5087594;28;20454;-71
2023/06/06 00:35:10;;;;;;;9.50;5.07;;;12.50;92.70;;;12.25;77.79;97989.16;5078401;28;20459;-71
2023/06/06 00:37:38;;;;;;;5.03;4.53;;;12.40;92.70;;;12.27;77.62;97987.06;5086576;28;20473;-71
2023/06/06 00:40:09;;;;;;;6.10;4.40;;;12.40;93.00;;;12.17;78.30;97990.28;5085187;28;20464;-71
2023/06/06 00:42:36;;;;;;;5.53;4.60;;;12.40;93.00;;;12.21;78.17;97987.94;5086553;28;20455;-73
2023/06/06 00:45:04;;;;;;;5.43;4.77;;;12.40;93.20;;;12.18;78.27;97981.94;5087251;28;20519;-74
2023/06/06 00:47:31;;;;;;;5.53;4.67;;;12.40;92.70;;;12.17;78.23;97982.97;5084463;28;20991;-72
2023/06/06 00:49:59;;;;;;;6.93;4.73;;;12.40;93.20;;;12.18;78.33;97979.22;5091794;28;20461;-72
2023/06/06 00:52:30;;;;;;;7.60;4.60;;;12.40;93.10;;;12.08;78.71;97984.34;5091770;28;20976;-72
2023/06/06 00:54:58;;;;;;;5.43;4.90;;;12.30;93.00;;;12.05;79.10;97984.78;5077796;28;20496;-72
2023/06/06 00:57:26;;;;;;;5.63;4.63;;;12.30;93.70;;;11.83;79.96;97987.06;5085950;28;20453;-72
2023/06/06 00:59:54;;;;;;;7.83;4.50;;;12.20;94.00;;;11.75;81.10;97985.50;5083250;28;21042;-72
2023/06/06 01:02:24;;;;;;;4.93;4.50;;;12.00;94.70;;;11.88;79.94;97989.97;5085314;28;20462;-72
2023/06/06 01:04:52;;;;;;;5.33;4.20;;;12.00;95.00;;;11.71;81.16;97984.28;5087372;28;20513;-71
2023/06/06 01:07:19;;;;;;;5.43;4.90;;;12.00;95.00;;;11.80;80.00;97993.78;5084643;28;20545;-74
2023/06/06 01:09:48;;;;;;;7.17;5.03;;;11.90;95.60;;;11.73;80.84;97990.31;5083390;28;20558;-69
2023/06/06 01:12:27;;;;;;;9.37;5.37;;;12.00;95.40;;;11.65;80.91;97988.72;5081734;28;20948;-72
2023/06/06 01:15:03;;;;;;;6.53;5.23;;;12.00;94.90;;;11.70;80.83;97974.53;5087281;28;20518;-71
2023/06/06 01:17:33;;;;;;;6.87;5.37;;;12.00;95.00;;;11.62;80.50;97983.75;5086409;28;20444;-71
2023/06/06 01:20:02;;;;;;;9.37;5.10;;;12.00;95.00;;;11.27;80.88;97925.59;5082755;28;20467;-70
2023/06/06 01:22:32;;;;;;;8.43;5.63;;;11.90;95.10;;;11.54;81.01;97984.88;5074757;28;20550;-71
2023/06/06 01:24:59;;;;;;;7.70;5.07;;;11.90;94.90;;;11.72;80.95;97983.25;5089968;28;20458;-72
2023/06/06 01:27:28;;;;;;;7.17;5.17;;;11.90;95.40;;;11.52;81.06;97986.13;5086874;28;20959;-71
2023/06/06 01:29:55;;;;;;;8.00;5.63;;;11.90;94.70;;;11.55;81.07;97986.53;5078348;28;21070;-71
2023/06/06 01:32:27;;;;;;;6.40;4.80;;;11.90;95.30;;;11.54;81.58;97982.16;5084223;28;20453;-71
2023/06/06 01:35:04;;;;;;;5.43;4.70;;;11.80;95.30;;;11.58;81.34;97985.25;5094799;28;21179;-71
2023/06/06 01:37:45;;;;;;;5.40;4.90;;;11.80;95.40;;;11.51;80.71;97974.50;5100535;27;20554;-72
2023/06/06 01:40:17;;;;;;;6.70;5.50;;;11.70;95.30;;;11.44;81.77;97987.25;5083072;28;20552;-71
2023/06/06 01:42:48;;;;;;;7.00;4.80;;;11.70;95.90;;;11.43;82.13;97982.88;5085536;28;21207;-71
2023/06/06 01:45:19;;;;;;;8.17;4.60;;;11.70;96.50;;;11.36;82.63;97984.84;5084833;28;20455;-72
2023/06/06 01:47:47;;;;;;;7.40;5.40;;;11.60;97.00;;;11.25;82.93;97986.38;5084950;28;20452;-73
2023/06/06 01:50:15;;;;;;;7.57;5.80;;;11.50;97.00;;;11.26;82.79;97980.75;5095626;27;20576;-72
2023/06/06 01:52:44;;;;;;;5.50;4.97;;;11.50;97.50;;;11.30;82.93;97978.44;5086390;28;20452;-72
2023/06/06 01:55:11;;;;;;;6.80;5.57;;;11.50;97.90;;;11.20;83.47;97987.84;5085176;28;20595;-73
2023/06/06 01:57:38;;;;;;;6.30;5.60;;;11.50;97.90;;;11.13;84.13;97986.25;5091097;28;20698;-71
2023/06/06 02:00:08;;;;;;;6.03;5.33;;;11.40;98.10;;;11.03;83.83;97974.06;5094325;27;20553;-71
2023/06/06 02:02:35;;;;;;;6.80;5.70;;;11.40;98.70;;;11.07;84.14;97979.03;5088750;28;20459;-71
2023/06/06 02:05:04;;;;;;;5.97;5.37;;;11.40;98.80;;;11.16;83.72;97977.72;5084502;28;20469;-71
2023/06/06 02:07:34;;;;;;;6.13;5.10;;;11.40;98.80;;;11.17;83.77;97984.78;5083168;28;22157;-71
2023/06/06 02:10:04;;;;;;;6.80;5.70;;;11.40;99.00;;;11.04;84.76;97983.84;5089743;28;21011;-71
2023/06/06 02:12:32;;;;;;;5.40;4.87;;;11.40;98.70;;;11.12;84.58;97987.31;5094968;28;20551;-72
2023/06/06 02:15:00;;;;;;;6.20;5.30;;;11.30;99.90;;;10.85;84.69;97955.88;5083675;28;20460;-73
2023/06/06 02:17:28;;;;;;;6.17;5.57;;;11.30;99.60;;;11.16;84.34;97991.25;5086832;28;20467;-71
2023/06/06 02:19:55;;;;;;;6.53;5.83;;;11.40;99.10;;;11.07;84.28;97984.44;5083648;28;20473;-72
2023/06/06 02:22:22;;;;;;;7.13;5.90;;;11.30;99.10;;;10.89;85.23;97977.91;5092821;28;20458;-72
2023/06/06 02:24:52;;;;;;;9.73;5.80;;;11.30;99.00;;;10.91;85.12;97981.22;5089820;28;20463;-71
2023/06/06 02:27:21;;;;;;;8.40;6.20;;;11.20;99.90;;;10.91;85.43;97995.53;5088391;28;20450;-71
2023/06/06 02:29:48;;;;;;;6.77;5.90;;;11.10;99.90;;;10.87;86.12;97974.59;5084996;28;20455;-72
2023/06/06 02:32:15;;;;;;;9.60;6.97;;;11.10;99.90;;;10.87;86.04;97982.72;5086631;28;20471;-70
2023/06/06 02:34:44;;;;;;;7.43;5.17;;;11.10;99.90;;;10.80;86.13;97979.22;5090473;28;20455;-72
2023/06/06 02:37:12;;;;;;;7.37;6.50;;;11.00;99.90;;;10.61;87.40;97981.81;5094221;28;20967;-72
2023/06/06 02:39:39;;;;;;;9.13;6.90;;;11.00;99.90;;;10.54;88.67;97979.16;5083348;28;20523;-71
2023/06/06 02:42:07;;;;;;;7.97;6.70;;;10.90;99.90;;;10.51;89.20;97976.88;5084850;28;20458;-72
2023/06/06 02:44:36;;;;;;;7.93;6.87;;;10.90;99.90;;;10.52;88.72;97975.00;5090332;28;20448;-71
2023/06/06 02:47:03;;;;;;;7.37;6.63;;;10.90;99.90;;;10.61;88.47;97973.72;5079122;28;20849;-71
2023/06/06 02:49:31;;;;;;;7.57;6.83;;;10.90;99.90;;;10.61;87.24;97968.31;5081134;28;20501;-71
2023/06/06 02:51:58;;;;;;;7.63;6.70;;;10.90;99.90;;;10.45;88.64;97972.34;5087331;28;20491;-71
2023/06/06 02:54:26;;;;;;;7.70;7.00;;;10.80;99.90;;;10.47;89.79;97964.88;5086808;28;20461;-70
2023/06/06 02:56:54;;;;;;;7.50;6.70;;;10.80;99.90;;;10.51;88.92;97976.03;5088306;28;20523;-71
2023/06/06 02:59:21;;;;;;;6.27;5.67;;;10.80;99.90;;;10.51;88.75;97976.03;5088816;28;20447;-71
2023/06/06 03:01:49;;;;;;;7.03;6.30;;;10.70;99.90;;;10.49;88.64;97977.09;5097398;27;20451;-72
2023/06/06 03:04:17;;;;;;;8.27;7.13;;;10.70;99.90;;;10.38;90.10;97983.13;5103287;28;20965;-71
2023/06/06 03:06:44;;;;;;;7.60;6.60;;;10.70;99.90;;;10.46;89.69;97982.94;5090432;28;20449;-70
2023/06/06 03:09:13;;;;;;;7.73;6.17;;;10.80;99.90;;;10.33;90.26;97986.50;5090317;28;20482;-72
2023/06/06 03:11:41;;;;;;;6.67;6.00;;;10.70;99.90;;;10.48;89.51;97977.31;5088578;28;20480;-72
2023/06/06 03:14:09;;;;;;;7.87;6.50;;;10.70;99.90;;;10.42;88.96;97989.81;5093151;28;20506;-72
2023/06/06 03:16:36;;;;;;;8.40;7.53;;;10.70;99.90;;;10.33;90.05;97994.59;5097013;27;20461;-72
2023/06/06 03:19:05;;;;;;;8.00;7.20;;;10.70;99.90;;;10.30;89.98;97975.28;5085651;28;20460;-72
2023/06/06 03:21:33;;;;;;;7.93;6.63;;;10.70;99.90;;;10.42;89.68;97987.13;5087356;28;20452;-72
2023/06/06 03:24:01;;;;;;;10.17;6.90;;;10.70;99.90;;;10.37;89.96;97992.28;5083444;28;20953;-72
2023/06/06 03:26:29;;;;;;;8.07;7.07;;;10.60;99.90;;;10.24;89.87;97970.75;5088759;28;20451;-72
2023/06/06 03:28:57;;;;;;;7.50;6.67;;;10.60;99.90;;;10.41;89.44;97977.34;5089253;28;20455;-72
2023/06/06 03:31:24;;;;;;;8.63;7.27;;;10.70;99.90;;;10.44;88.81;97995.81;5090385;28;20474;-71
2023/06/06 03:33:52;;;;;;;10.23;6.87;;;10.70;99.90;;;10.47;88.77;97998.09;5087982;28;20747;-70
2023/06/06 03:36:21;;;;;;;9.27;7.03;;;10.70;99.90;;;10.55;88.47;98009.72;5085825;28;20877;-71
2023/06/06 03:38:48;;;;;;;10.10;7.43;;;10.80;99.90;;;10.48;89.04;98007.84;5094310;28;20869;-72
2023/06/06 03:41:15;;;;;;;7.47;6.70;;;10.80;99.90;;;10.49;88.47;98006.81;5086859;28;20463;-72
2023/06/06 03:43:43;;;;;;;9.30;7.50;;;10.80;99.90;;;10.45;88.76;98011.00;5091390;28;20456;-71
2023/06/06 03:46:10;;;;;;;7.83;7.07;;;10.80;99.90;;;10.53;89.04;98017.19;5072241;28;20722;-72
2023/06/06 03:48:38;;;;;;;9.63;7.67;;;10.90;99.90;;;10.67;87.79;98016.06;5081705;28;20457;-71
2023/06/06 03:51:05;;;;;;;9.83;8.60;;;11.00;99.90;;;10.55;87.42;97971.88;5064969;28;20550;-71
2023/06/06 03:53:34;;;;;;;9.80;8.80;;;11.00;99.90;;;10.79;86.41;97997.31;5093880;28;20490;-70
2023/06/06 03:56:02;;;;;;;10.40;7.80;;;11.10;99.90;;;10.85;86.17;97995.63;5089272;28;20469;-70
2023/06/06 03:58:30;;;;;;;8.67;7.77;;;11.20;99.90;;;10.98;86.04;98019.03;5081240;28;20464;-71
2023/06/06 04:00:58;;;;;;;9.13;8.07;;;11.20;99.80;;;11.04;85.88;98018.97;5086724;28;20483;-71
2023/06/06 04:03:25;;;;;;;12.77;9.57;;;11.40;99.40;;;11.32;84.65;98014.19;5088099;28;21041;-71
2023/06/06 04:05:53;;;;;;;11.60;9.70;;;11.60;98.70;;;11.94;81.66;98020.72;5079073;28;20594;-72
2023/06/06 04:08:21;;;;;;;10.73;8.70;;;12.10;95.50;;;12.72;77.47;98015.63;5093220;28;20451;-71
2023/06/06 04:10:49;;;;;;;9.50;7.83;;;12.90;92.30;;;13.38;74.56;98007.59;5087287;28;20465;-72
2023/06/06 04:13:16;;;;;;;9.30;8.07;;;13.50;89.90;;;13.95;71.65;98013.53;5087350;28;20549;-71
2023/06/06 04:15:45;;;;;;;10.70;8.10;;;14.10;86.30;;;14.41;69.75;98014.50;5083922;28;20465;-73
2023/06/06 04:18:12;;;;;;;8.93;7.53;;;14.60;84.80;;;14.80;68.05;98005.78;5089750;28;20544;-73
2023/06/06 04:20:40;;;;;;;6.50;5.90;;;15.20;82.40;;;15.19;65.65;98007.00;5085114;28;20470;-72
2023/06/06 04:23:07;;;;;;;6.50;5.83;;;15.60;80.60;;;15.14;65.04;97996.84;5095159;28;20463;-71
2023/06/06 04:25:35;;;;;;;6.87;6.27;;;15.60;79.60;;;15.51;63.64;98004.53;5078854;28;20485;-71
2023/06/06 04:28:05;;;;;;;9.90;6.47;;;15.90;79.30;;;15.93;62.42;98010.63;5083202;28;20470;-71
2023/06/06 04:30:33;;;;;;;7.07;6.10;;;16.30;78.10;;;16.11;61.43;98006.78;5080905;28;20447;-71
2023/06/06 04:33:00;;;;;;;6.27;5.67;;;16.60;77.00;;;16.47;60.61;98009.16;5098424;28;20503;-72
2023/06/06 04:35:27;;;;;;;6.77;6.17;;;16.80;76.50;;;16.04;61.37;98003.41;5081652;28;20482;-72
2023/06/06 04:37:57;;;;;;;7.63;6.93;;;16.50;76.10;;;15.69;62.70;97999.88;5085717;28;20462;-71
2023/06/06 04:40:32;;;;;;;9.13;7.63;;;16.20;76.90;;;15.40;63.92;97991.84;5084556;28;20935;-72
2023/06/06 04:43:01;;;;;;;7.90;7.10;;;15.90;77.50;;;15.93;63.13;97994.28;5083062;28;20459;-72
2023/06/06 04:45:29;;;;;;;9.37;7.03;;;16.20;77.60;;;16.48;61.80;97989.00;5087036;28;20449;-72
2023/06/06 04:47:57;;;;;;;7.23;6.53;;;16.60;77.40;;;17.00;59.57;97987.66;5088869;28;21214;-71
2023/06/06 04:50:24;;;;;;;7.67;6.90;;;17.20;75.90;;;17.31;58.33;97996.13;5083739;28;20505;-72
2023/06/06 04:52:52;;;;;;;7.17;6.47;;;17.70;74.30;;;17.69;57.74;98001.59;5083706;28;20474;-72
2023/06/06 04:55:19;;;;;;;6.80;6.20;;;18.10;73.30;;;17.43;58.48;97995.94;5102916;28;20471;-72
2023/06/06 04:57:47;;;;;;;6.80;6.10;;;17.90;73.00;;;17.47;58.52;97999.78;5091777;28;20873;-74
2023/06/06 05:00:16;;;;;;;9.13;7.07;;;17.90;73.00;;;17.72;57.73;98001.06;5082287;28;20516;-72
2023/06/06 05:02:48;;;;;;;7.30;6.60;;;18.00;73.50;;;18.14;56.32;97984.97;5079009;28;21010;-71
2023/06/06 05:05:16;;;;;;;8.73;7.27;;;18.50;71.80;;;18.41;55.58;97985.59;5082926;28;20457;-70
2023/06/06 05:07:44;;;;;;;9.00;7.40;;;18.90;70.70;;;18.18;56.19;97983.34;5082380;28;20489;-71
2023/06/06 05:10:11;;;;;;;7.33;6.73;;;19.10;69.80;;;19.01;54.41;97969.91;5086976;28;20770;-72
2023/06/06 05:12:39;;;;;;;6.63;6.03;;;19.30;69.70;;;18.98;54.45;97976.75;5092301;28;20469;-72
2023/06/06 05:15:07;;;;;;;7.00;6.40;;;19.30;69.20;;;19.20;54.16;97968.31;5074039;28;20487;-73
2023/06/06 05:17:36;;;;;;;7.50;6.80;;;19.60;68.70;;;18.94;54.41;97972.88;5073392;28;20457;-71
2023/06/06 05:20:10;;;;;;;7.67;6.90;;;19.50;67.90;;;18.57;55.34;97984.84;5095798;27;20448;-71
2023/06/06 05:22:37;;;;;;;8.60;6.20;;;19.20;68.40;;;18.81;54.75;97971.50;5080650;28;20466;-73
2023/06/06 05:25:07;;;;;;;8.37;6.73;;;19.30;68.80;;;19.09;53.98;97972.13;5082120;28;20551;-72
2023/06/06 05:27:35;;;;;;;7.33;6.63;;;19.30;68.50;;;19.09;52.59;97895.47;5076939;28;20845;-72
2023/06/06 05:30:05;;;;;;;7.77;7.07;;;20.20;66.90;;;20.34;50.99;97973.59;5090274;28;20461;-71
2023/06/06 05:32:32;;;;;;;8.30;6.40;;;20.90;65.70;;;19.32;53.22;97969.94;5092661;28;20571;-73
2023/06/06 05:35:03;;;;;;;8.67;7.10;;;20.40;64.80;;;19.59;52.73;97979.78;5084923;28;20454;-72
2023/06/06 05:37:31;;;;;;;7.10;6.40;;;20.20;65.40;;;19.47;53.26;97983.63;5100092;27;20459;-72
2023/06/06 05:39:59;;;;;;;6.60;5.80;;;20.20;65.60;;;19.15;53.83;97983.91;5084700;28;20528;-71
2023/06/06 05:42:26;;;;;;;8.20;6.47;;;19.80;65.60;;;19.70;52.89;97983.31;5081738;28;20459;-74
2023/06/06 05:44:53;;;;;;;6.60;5.87;;;20.00;66.20;;;19.76;52.04;97985.78;5088472;28;20456;-72
2023/06/06 05:47:20;;;;;;;7.60;6.90;;;20.50;64.80;;;19.15;53.91;97987.44;5072291;28;20457;-72
2023/06/06 05:49:47;;;;;;;7.33;6.63;;;19.70;65.70;;;19.52;52.88;97980.06;5082451;28;20498;-74
2023/06/06 05:52:15;;;;;;;6.70;6.10;;;19.90;65.50;;;19.46;52.64;97975.69;5088778;28;20581;-71
2023/06/06 05:54:44;;;;;;;7.10;6.40;;;20.00;65.00;;;19.86;51.68;97984.13;5071447;28;21317;-75
2023/06/06 05:57:20;;;;;;;7.10;6.37;;;20.20;64.60;;;19.56;52.14;97978.41;5072065;28;20956;-74
2023/06/06 05:59:47;;;;;;;7.80;7.00;;;20.40;64.20;;;19.80;51.83;97984.16;5082466;28;20498;-72
2023/06/06 06:02:14;;;;;;;7.17;6.47;;;20.40;63.80;;;19.65;52.08;97978.69;5083225;28;20460;-72
2023/06/06 06:04:42;;;;;;;7.43;6.72;;;20.50;63.40;;;19.72;51.55;97987.44;5070515;28;20938;-73
2023/06/06 06:07:10;;;;;;;6.67;6.17;;;20.60;63.10;;;20.10;51.04;97985.22;5068785;28;20601;-73
2023/06/06 06:09:37;;;;;;;6.73;6.13;;;20.80;62.70;;;20.14;50.38;97982.72;5069448;28;20444;-72
2023/06/06 06:12:07;;;;;;;6.20;5.57;;;20.90;61.90;;;20.15;50.29;97991.78;5068198;28;20483;-72
2023/06/06 06:14:36;;;;;;;7.63;5.67;;;20.90;61.60;;;20.55;49.32;97994.63;5074180;28;23799;-72
2023/06/06 06:17:10;;;;;;;6.10;5.30;;;21.10;61.00;;;20.46;49.48;97983.44;5086949;28;20502;-73
2023/06/06 06:19:39;;;;;;;5.50;5.00;;;21.00;61.00;;;20.12;50.37;97981.38;5069059;28;20447;-73
2023/06/06 06:22:09;;;;;;;6.67;5.27;;;21.00;60.50;;;20.02;50.44;97983.03;5078851;28;20477;-70
2023/06/06 06:24:36;;;;;;;5.77;5.17;;;21.10;60.30;;;20.15;49.87;97984.34;5083608;28;20543;-72
2023/06/06 06:27:07;;;;;;;6.43;5.83;;;21.10;60.10;;;19.03;52.83;97987.72;5087334;28;20487;-73
2023/06/06 06:29:34;;;;;;;6.60;6.00;;;20.30;60.50;;;18.12;55.61;97994.25;5079381;28;20515;-72
2023/06/06 06:32:02;;;;;;;6.00;5.40;;;19.20;63.10;;;17.35;57.49;97988.22;5070436;28;20553;-72
2023/06/06 06:34:29;;;;;;;5.40;4.80;;;18.30;64.90;;;17.08;58.04;97992.63;5080492;28;20460;-73
2023/06/06 06:36:56;;;;;;;5.10;4.60;;;17.70;66.70;;;17.13;58.90;97994.59;5081894;28;20539;-72
2023/06/06 06:39:23;;;;;;;5.47;4.13;;;17.50;68.30;;;17.33;58.98;97993.13;5086370;28;20447;-72
2023/06/06 06:41:52;;;;;;;6.40;4.10;;;17.60;69.30;;;17.04;58.92;97985.22;5082486;28;20455;-72
2023/06/06 06:44:21;;;;;;;5.23;3.40;;;17.40;69.10;;;16.96;58.92;97983.75;5087739;28;21080;-72
2023/06/06 06:46:48;;;;;;;7.00;3.83;;;17.30;69.50;;;16.93;59.03;97990.56;5079368;28;20456;-72
2023/06/06 06:49:16;;;;;;;4.23;3.83;;;17.20;69.90;;;17.28;58.00;97978.34;5086783;28;20447;-73
2023/06/06 06:51:44;;;;;;;4.30;3.90;;;17.40;70.00;;;17.50;58.14;97988.34;5086188;28;20452;-71
2023/06/06 06:54:15;;;;;;;4.63;3.90;;;17.70;70.30;;;17.91;56.96;97986.97;5085564;28;20479;-70
2023/06/06 06:56:42;;;;;;;4.67;4.20;;;18.00;69.90;;;17.50;57.73;97982.88;5082830;28;20468;-72
2023/06/06 06:59:10;;;;;;;5.50;4.27;;;18.00;69.70;;;17.45;58.45;97992.97;5088554;28;20471;-73
2023/06/06 07:01:39;;;;;;;4.77;4.30;;;17.90;70.30;;;17.61;58.57;97993.88;5079503;28;20825;-72
2023/06/06 07:04:08;;;;;;;4.50;4.10;;;17.80;70.70;;;17.73;58.29;97997.25;5078175;28;20464;-72
2023/06/06 07:06:36;;;;;;;4.30;3.83;;;17.80;70.90;;;17.89;57.60;97994.63;5089423;28;20513;-72
2023/06/06 07:09:05;;;;;;;4.27;3.83;;;18.00;70.70;;;17.81;58.13;97987.75;5086445;28;20460;-71
2023/06/06 07:11:32;;;;;;;4.23;3.83;;;18.00;70.90;;;17.13;58.01;97938.09;5095088;28;20456;-72
2023/06/06 07:14:00;;;;;;;3.80;3.10;;;17.80;70.30;;;17.54;58.53;98000.41;5089822;28;20509;-72
2023/06/06 07:16:27;;;;;;;4.80;3.80;;;17.70;71.00;;;17.70;57.98;97997.78;5082372;28;20980;-72
2023/06/06 07:18:56;;;;;;;6.70;4.00;;;17.80;71.10;;;17.94;57.53;98005.56;5090028;28;20463;-73
2023/06/06 07:21:25;;;;;;;5.50;3.60;;;18.00;70.70;;;18.04;57.16;97994.75;5088869;28;20460;-71
2023/06/06 07:23:53;;;;;;;4.50;4.10;;;18.20;70.40;;;17.76;57.71;97985.78;5083291;28;20510;-73
2023/06/06 07:26:21;;;;;;;4.40;4.00;;;18.10;70.30;;;18.15;56.90;97990.16;5076733;28;20759;-73
2023/06/06 07:28:48;;;;;;;4.33;3.93;;;18.30;70.40;;;18.54;55.63;97997.16;5082459;28;20475;-73
2023/06/06 07:31:17;;;;;;;4.33;3.90;;;18.60;69.70;;;18.32;55.45;98000.06;5078359;28;20456;-72
2023/06/06 07:33:44;;;;;;;4.50;3.97;;;18.60;68.80;;;18.26;55.80;97994.59;5088740;28;20551;-72
2023/06/06 07:36:14;;;;;;;4.60;3.93;;;18.50;68.60;;;17.98;56.96;97995.78;5090718;28;20539;-75
2023/06/06 07:38:41;;;;;;;3.90;3.60;;;18.30;69.30;;;18.21;56.69;97994.56;5085926;28;20446;-71
2023/06/06 07:41:08;;;;;;;5.00;4.30;;;18.30;69.70;;;18.39;56.05;97998.72;5090362;28;20819;-71
2023/06/06 07:43:37;;;;;;;4.50;4.10;;;18.50;69.40;;;18.39;56.02;97998.72;5083864;28;20456;-73
2023/06/06 07:46:04;;;;;;;3.90;3.50;;;18.50;69.20;;;18.29;56.08;97993.25;5074006;28;20293;-74
2023/06/06 07:48:31;;;;;;;5.30;3.93;;;18.50;68.90;;;18.44;55.82;97999.88;5084319;28;20541;-72
2023/06/06 07:50:59;;;;;;;4.77;4.13;;;18.60;69.00;;;18.24;55.61;97963.13;5087805;28;20459;-74
2023/06/06 07:53:27;;;;;;;3.93;3.63;;;18.70;68.60;;;18.31;56.51;97995.69;5085986;28;20476;-74
2023/06/06 07:55:55;;;;;;;3.87;3.37;;;18.60;69.30;;;18.03;57.04;97987.63;5078300;28;20559;-70
2023/06/06 07:58:26;;;;;;;4.30;3.90;;;18.40;69.50;;;18.21;56.57;97991.00;5082456;28;20457;-69
2023/06/06 08:00:58;;;;;;;3.73;3.43;;;18.40;69.60;;;18.26;56.63;97996.47;5092464;28;20828;-70
2023/06/06 08:03:25;;;;;;;3.47;3.17;;;18.40;69.90;;;18.51;56.38;97998.53;5095737;28;20925;-69
2023/06/06 08:05:52;;;;;;;3.73;2.93;;;18.50;69.90;;;18.29;56.63;97993.25;5090654;28;20470;-70
2023/06/06 08:08:20;;;;;;;3.10;2.90;;;18.50;69.70;;;18.46;56.19;98000.41;5080515;28;20463;-69
2023/06/06 08:10:49;;;;;;;4.03;3.60;;;18.50;69.70;;;18.62;56.18;98001.28;5085964;28;22320;-70
2023/06/06 08:13:16;;;;;;;4.53;3.60;;;18.80;69.70;;;18.91;55.41;97998.91;5076425;28;20604;-71
2023/06/06 08:15:43;;;;;;;3.80;3.50;;;19.10;69.40;;;19.07;54.31;97998.97;5074147;28;20459;-70
2023/06/06 08:18:10;;;;;;;3.50;3.20;;;19.10;68.20;;;19.20;54.29;97995.69;5080926;28;20457;-69
2023/06/06 08:20:37;;;;;;;4.00;3.60;;;19.30;68.30;;;19.34;53.82;97992.41;5085936;28;20998;-69
2023/06/06 08:23:05;;;;;;;5.20;3.70;;;19.40;67.60;;;19.46;53.38;97998.41;5087266;28;20458;-70
2023/06/06 08:25:32;;;;;;;4.20;3.80;;;19.70;67.30;;;19.90;52.80;98001.66;5081699;28;20477;-70
2023/06/06 08:28:01;;;;;;;3.87;3.57;;;19.90;67.10;;;19.79;52.81;97996.22;5079550;28;20451;-70
2023/06/06 08:30:28;;;;;;;4.20;3.37;;;19.90;67.20;;;19.93;52.51;98006.63;5074216;28;20471;-70
2023/06/06 08:32:55;;;;;;;4.22;3.83;;;20.10;66.60;;;19.61;53.31;97994.03;5072438;28;20457;-70
2023/06/06 08:35:24;;;;;;;3.80;3.50;;;19.90;66.50;;;19.50;54.17;97999.53;5084887;28;20296;-69
2023/06/06 08:37:52;;;;;;;3.77;3.50;;;19.80;67.10;;;19.53;53.45;97996.25;5088321;28;20563;-70
2023/06/06 08:40:20;;;;;;;4.67;3.67;;;19.80;66.70;;;19.72;52.94;97995.66;5072691;28;20860;-70
2023/06/06 08:42:52;;;;;;;4.10;3.70;;;19.90;67.10;;;19.92;53.17;97996.75;5075475;28;20463;-70
2023/06/06 08:45:22;;;;;;;4.53;3.90;;;20.10;67.00;;;20.01;52.59;98003.31;5085429;28;20590;-70
2023/06/06 08:47:49;;;;;;;3.80;3.50;;;20.20;66.10;;;19.90;52.60;98001.66;5082452;28;20464;-69
2023/06/06 08:50:17;;;;;;;3.00;2.80;;;20.10;66.20;;;19.67;53.61;98003.91;5079933;28;20451;-71
2023/06/06 08:52:45;;;;;;;4.13;3.30;;;20.00;66.40;;;19.80;53.29;98006.09;5088461;28;20506;-70
2023/06/06 08:55:12;;;;;;;4.10;3.50;;;20.00;66.70;;;19.82;53.23;98012.09;5084284;28;20534;-71
2023/06/06 08:57:43;;;;;;;3.13;2.83;;;20.00;66.30;;;19.63;53.22;98000.06;5084054;28;20455;-70
2023/06/06 09:00:20;;;;;;;3.90;3.60;;;19.90;65.90;;;19.97;53.04;98013.22;5080704;28;20513;-69
2023/06/06 09:02:49;;;;;;;4.10;3.53;;;20.00;66.50;;;20.06;52.60;98010.72;5077517;28;20467;-71
2023/06/06 09:05:20;;;;;;;3.23;2.93;;;20.20;66.20;;;19.79;53.93;98007.19;5079675;28;20910;-70
2023/06/06 09:07:49;;;;;;;3.50;3.20;;;20.00;66.90;;;20.13;53.23;98013.19;5084865;28;20455;-70
2023/06/06 09:10:17;;;;;;;3.60;3.30;;;20.20;67.20;;;20.07;53.45;98018.66;5083410;28;20964;-70
2023/06/06 09:12:46;;;;;;;3.20;2.93;;;20.30;67.00;;;20.13;53.31;98016.72;5073650;28;20484;-68
2023/06/06 09:15:14;;;;;;;4.73;4.33;;;20.30;66.70;;;20.18;53.01;98018.63;5072910;28;20470;-70
2023/06/06 09:17:45;;;;;;;3.40;3.10;;;20.40;66.50;;;19.80;54.13;98036.22;5073377;28;20473;-69
2023/06/06 09:20:16;;;;;;;3.90;3.20;;;20.20;67.00;;;19.78;54.17;98032.91;5081224;28;20472;-69
2023/06/06 09:22:48;;;;;;;3.37;3.07;;;20.10;67.10;;;20.03;53.99;98028.53;5097177;28;20466;-70
2023/06/06 09:25:18;;;;;;;3.97;3.50;;;20.20;67.30;;;20.08;54.27;98031.25;5081065;28;21073;-69
2023/06/06 09:27:46;;;;;;;3.90;3.60;;;20.30;67.60;;;19.92;53.74;98026.91;5083202;28;20468;-69
2023/06/06 09:30:22;;;;;;;4.50;3.43;;;20.20;67.00;;;19.74;55.10;98023.63;5079013;28;20516;-71
2023/06/06 09:32:53;;;;;;;5.50;3.57;;;20.00;67.90;;;19.74;55.08;98029.09;5079919;28;20535;-68
2023/06/06 09:35:22;;;;;;;3.33;3.03;;;19.90;68.10;;;19.59;55.45;98029.94;5086734;28;20513;-69
2023/06/06 09:37:50;;;;;;;4.70;3.30;;;19.90;68.20;;;19.82;55.43;98039.53;5096760;28;20451;-70
2023/06/06 09:40:19;;;;;;;3.37;3.03;;;19.90;68.80;;;19.84;55.52;98024.72;5078254;28;20455;-69
2023/06/06 09:42:48;;;;;;;3.70;3.40;;;19.90;68.80;;;20.07;53.57;97990.44;5086759;28;20573;-69
2023/06/06 09:45:17;;;;;;;3.20;2.90;;;20.40;68.30;;;20.74;52.96;98030.50;5080113;28;20500;-69
2023/06/06 09:47:46;;;;;;;3.97;3.57;;;20.80;67.70;;;20.60;52.70;98017.38;5066984;28;20970;-70
2023/06/06 09:50:17;;;;;;;5.30;3.57;;;20.90;66.80;;;20.94;52.32;98035.91;5082985;28;20447;-69
2023/06/06 09:52:45;;;;;;;3.40;3.10;;;21.00;66.80;;;21.06;52.03;98026.50;5089977;28;20477;-71
2023/06/06 09:55:15;;;;;;;3.20;2.90;;;21.20;66.40;;;21.25;51.45;98023.91;5086193;28;20455;-69
2023/06/06 09:57:42;;;;;;;3.33;3.07;;;21.40;65.90;;;20.85;51.78;97965.41;5079351;28;20456;-70
2023/06/06 10:00:16;;;;;;;3.47;3.17;;;21.30;66.20;;;20.95;52.17;98026.56;5078064;28;20731;-72
2023/06/06 10:02:45;;;;;;;2.87;2.67;;;21.30;65.80;;;20.64;53.23;98023.94;5082882;28;20453;-71
2023/06/06 10:05:15;;;;;;;4.30;3.57;;;21.00;66.70;;;20.30;54.17;98027.38;5077903;28;20460;-71
2023/06/06 10:07:46;;;;;;;3.40;3.10;;;20.60;67.10;;;19.62;55.80;98012.09;5088828;28;20447;-69
2023/06/06 10:10:15;;;;;;;3.83;3.20;;;20.20;68.00;;;19.64;56.03;98021.72;5085927;28;20456;-69
2023/06/06 10:12:44;;;;;;;4.57;3.00;;;19.90;68.90;;;19.47;56.50;98021.97;5084704;28;20452;-68
2023/06/06 10:15:13;;;;;;;3.53;3.00;;;19.60;69.50;;;19.33;57.28;98029.94;5088241;28;20463;-71
2023/06/06 10:17:44;;;;;;;3.33;3.03;;;19.50;69.90;;;19.50;57.10;98021.44;5079415;28;20462;-70
2023/06/06 10:20:13;;;;;;;3.80;3.30;;;19.60;70.40;;;19.63;57.29;98022.81;5091340;28;20578;-69
2023/06/06 10:22:41;;;;;;;4.60;3.80;;;19.70;70.90;;;19.92;56.20;98026.91;5081855;28;21028;-70
2023/06/06 10:25:13;;;;;;;3.53;3.23;;;19.90;70.40;;;20.04;56.06;98024.69;5075965;28;20545;-71